sensor_id;sensor_type;location;lat;lon;timestamp;temperature;humidity
41644;DHT22;44236;48.098;11.582;2023-08-31T00:02:10;21.10;59.30
41644;DHT22;44236;48.098;11.582;2023-08-31T00:04:35;21.10;59.30
41644;DHT22;44236;48.098;11.582;2023-08-31T00:07:01;21.10;59.40
41644;DHT22;44236;48.098;11.582;2023-08-31T00:09:27;21.10;59.40
41644;DHT22;44236;48.098;11.582;2023-08-31T00:11:52;21.10;59.40
41644;DHT22;44236;48.098;11.582;2023-08-31T00:14:18;21.10;59.30
41644;DHT22;44236;48.098;11.582;2023-08-31T00:16:44;21.10;59.30
41644;DHT22;44236;48.098;11.582;2023-08-31T00:19:13;21.10;59.30
41644;DHT22;44236;48.098;11.582;2023-08-31T00:21:40;21.10;59.30
41644;DHT22;44236;48.098;11.582;2023-08-31T00:24:06;21.10;59.30
41644;DHT22;44236;48.098;11.582;2023-08-31T00:26:32;21.10;59.30
41644;DHT22;44236;48.098;11.582;2023-08-31T00:28:58;21.00;59.20
41644;DHT22;44236;48.098;11.582;2023-08-31T00:31:24;21.10;59.20
41644;DHT22;44236;48.098;11.582;2023-08-31T00:33:50;21.00;59.20
41644;DHT22;44236;48.098;11.582;2023-08-31T00:36:15;21.00;59.20
41644;DHT22;44236;48.098;11.582;2023-08-31T00:38:43;21.10;59.20
41644;DHT22;44236;48.098;11.582;2023-08-31T00:41:09;21.10;59.20
41644;DHT22;44236;48.098;11.582;2023-08-31T00:43:34;21.00;59.20
41644;DHT22;44236;48.098;11.582;2023-08-31T00:46:00;21.00;59.20
41644;DHT22;44236;48.098;11.582;2023-08-31T00:48:26;21.00;59.20
41644;DHT22;44236;48.098;11.582;2023-08-31T00:50:52;21.00;59.20
41644;DHT22;44236;48.098;11.582;2023-08-31T00:53:18;21.00;59.20
41644;DHT22;44236;48.098;11.582;2023-08-31T00:55:47;21.00;59.20
41644;DHT22;44236;48.098;11.582;2023-08-31T00:58:13;21.00;59.20
41644;DHT22;44236;48.098;11.582;2023-08-31T01:04:03;21.00;59.20
41644;DHT22;44236;48.098;11.582;2023-08-31T01:12:22;21.00;59.20
41644;DHT22;44236;48.098;11.582;2023-08-31T01:14:59;21.00;59.10
41644;DHT22;44236;48.098;11.582;2023-08-31T01:17:29;21.00;59.20
41644;DHT22;44236;48.098;11.582;2023-08-31T01:19:59;21.00;59.20
41644;DHT22;44236;48.098;11.582;2023-08-31T01:22:43;21.00;59.50
41644;DHT22;44236;48.098;11.582;2023-08-31T01:25:10;21.00;59.10
41644;DHT22;44236;48.098;11.582;2023-08-31T01:27:36;21.00;59.10
41644;DHT22;44236;48.098;11.582;2023-08-31T01:30:03;20.90;59.10
41644;DHT22;44236;48.098;11.582;2023-08-31T01:32:30;20.90;59.00
41644;DHT22;44236;48.098;11.582;2023-08-31T01:34:56;21.00;59.10
41644;DHT22;44236;48.098;11.582;2023-08-31T01:38:11;20.90;59.10
41644;DHT22;44236;48.098;11.582;2023-08-31T01:40:40;20.90;59.00
41644;DHT22;44236;48.098;11.582;2023-08-31T01:43:08;20.90;59.00
41644;DHT22;44236;48.098;11.582;2023-08-31T01:45:35;20.90;59.10
41644;DHT22;44236;48.098;11.582;2023-08-31T01:48:03;20.90;59.10
41644;DHT22;44236;48.098;11.582;2023-08-31T01:50:29;20.90;59.10
41644;DHT22;44236;48.098;11.582;2023-08-31T01:52:55;20.90;59.10
41644;DHT22;44236;48.098;11.582;2023-08-31T01:55:21;20.90;59.10
41644;DHT22;44236;48.098;11.582;2023-08-31T01:57:47;20.90;59.20
41644;DHT22;44236;48.098;11.582;2023-08-31T02:00:14;20.90;59.10
41644;DHT22;44236;48.098;11.582;2023-08-31T02:02:40;20.90;59.20
41644;DHT22;44236;48.098;11.582;2023-08-31T02:05:07;20.90;59.20
41644;DHT22;44236;48.098;11.582;2023-08-31T02:07:33;20.80;59.10
41644;DHT22;44236;48.098;11.582;2023-08-31T02:09:58;20.90;59.10
41644;DHT22;44236;48.098;11.582;2023-08-31T02:12:24;20.80;59.10
41644;DHT22;44236;48.098;11.582;2023-08-31T02:14:49;20.90;59.20
41644;DHT22;44236;48.098;11.582;2023-08-31T02:17:15;20.80;59.10
41644;DHT22;44236;48.098;11.582;2023-08-31T02:19:41;20.90;59.20
41644;DHT22;44236;48.098;11.582;2023-08-31T02:22:06;20.80;59.10
41644;DHT22;44236;48.098;11.582;2023-08-31T02:24:32;20.90;59.20
41644;DHT22;44236;48.098;11.582;2023-08-31T02:26:57;20.80;59.10
41644;DHT22;44236;48.098;11.582;2023-08-31T02:29:23;20.80;59.20
41644;DHT22;44236;48.098;11.582;2023-08-31T02:31:48;20.80;59.20
41644;DHT22;44236;48.098;11.582;2023-08-31T02:34:14;20.80;59.20
41644;DHT22;44236;48.098;11.582;2023-08-31T02:36:40;20.80;59.30
41644;DHT22;44236;48.098;11.582;2023-08-31T02:39:05;20.80;59.30
41644;DHT22;44236;48.098;11.582;2023-08-31T02:41:32;20.80;59.40
41644;DHT22;44236;48.098;11.582;2023-08-31T02:43:57;20.80;59.40
41644;DHT22;44236;48.098;11.582;2023-08-31T02:46:23;20.80;59.30
41644;DHT22;44236;48.098;11.582;2023-08-31T02:48:50;20.80;59.30
41644;DHT22;44236;48.098;11.582;2023-08-31T02:51:16;20.80;59.40
41644;DHT22;44236;48.098;11.582;2023-08-31T02:53:41;20.80;59.30
41644;DHT22;44236;48.098;11.582;2023-08-31T02:56:07;20.80;59.30
41644;DHT22;44236;48.098;11.582;2023-08-31T02:58:33;20.80;59.30
41644;DHT22;44236;48.098;11.582;2023-08-31T03:01:12;20.80;59.20
41644;DHT22;44236;48.098;11.582;2023-08-31T03:03:38;20.80;59.30
41644;DHT22;44236;48.098;11.582;2023-08-31T03:06:08;20.80;59.20
41644;DHT22;44236;48.098;11.582;2023-08-31T03:08:35;20.80;59.20
41644;DHT22;44236;48.098;11.582;2023-08-31T03:11:02;20.80;59.30
41644;DHT22;44236;48.098;11.582;2023-08-31T03:13:28;20.70;59.20
41644;DHT22;44236;48.098;11.582;2023-08-31T03:15:54;20.70;59.20
41644;DHT22;44236;48.098;11.582;2023-08-31T03:18:19;20.70;59.20
41644;DHT22;44236;48.098;11.582;2023-08-31T03:20:45;20.70;59.20
41644;DHT22;44236;48.098;11.582;2023-08-31T03:23:11;20.70;59.20
41644;DHT22;44236;48.098;11.582;2023-08-31T03:25:36;20.70;59.20
41644;DHT22;44236;48.098;11.582;2023-08-31T03:28:02;20.80;59.20
41644;DHT22;44236;48.098;11.582;2023-08-31T03:30:28;20.70;59.20
41644;DHT22;44236;48.098;11.582;2023-08-31T03:32:54;20.70;59.20
41644;DHT22;44236;48.098;11.582;2023-08-31T03:35:20;20.70;59.30
41644;DHT22;44236;48.098;11.582;2023-08-31T03:37:49;20.70;59.30
41644;DHT22;44236;48.098;11.582;2023-08-31T03:40:15;20.70;59.30
41644;DHT22;44236;48.098;11.582;2023-08-31T03:42:40;20.70;59.30
41644;DHT22;44236;48.098;11.582;2023-08-31T03:45:06;20.70;59.30
41644;DHT22;44236;48.098;11.582;2023-08-31T03:47:32;20.70;59.30
41644;DHT22;44236;48.098;11.582;2023-08-31T03:49:58;20.70;59.30
41644;DHT22;44236;48.098;11.582;2023-08-31T03:52:23;20.70;59.20
41644;DHT22;44236;48.098;11.582;2023-08-31T03:54:50;20.70;59.20
41644;DHT22;44236;48.098;11.582;2023-08-31T03:57:16;20.70;59.20
41644;DHT22;44236;48.098;11.582;2023-08-31T03:59:42;20.70;59.20
41644;DHT22;44236;48.098;11.582;2023-08-31T04:02:07;20.70;59.20
41644;DHT22;44236;48.098;11.582;2023-08-31T04:04:33;20.70;59.20
41644;DHT22;44236;48.098;11.582;2023-08-31T04:06:59;20.70;59.20
41644;DHT22;44236;48.098;11.582;2023-08-31T04:09:25;20.70;59.20
41644;DHT22;44236;48.098;11.582;2023-08-31T04:11:51;20.70;59.30
41644;DHT22;44236;48.098;11.582;2023-08-31T04:14:16;20.70;59.20
41644;DHT22;44236;48.098;11.582;2023-08-31T04:16:44;20.70;59.20
41644;DHT22;44236;48.098;11.582;2023-08-31T04:19:09;20.70;59.20
41644;DHT22;44236;48.098;11.582;2023-08-31T04:21:35;20.70;59.20
41644;DHT22;44236;48.098;11.582;2023-08-31T04:24:01;20.70;59.40
41644;DHT22;44236;48.098;11.582;2023-08-31T04:26:27;20.60;59.20
41644;DHT22;44236;48.098;11.582;2023-08-31T04:28:53;20.70;59.30
41644;DHT22;44236;48.098;11.582;2023-08-31T04:31:19;20.70;59.20
41644;DHT22;44236;48.098;11.582;2023-08-31T04:33:45;20.70;59.30
41644;DHT22;44236;48.098;11.582;2023-08-31T04:36:10;20.70;59.30
41644;DHT22;44236;48.098;11.582;2023-08-31T04:38:37;20.60;59.50
41644;DHT22;44236;48.098;11.582;2023-08-31T04:41:03;20.60;59.30
41644;DHT22;44236;48.098;11.582;2023-08-31T04:43:29;20.60;59.30
41644;DHT22;44236;48.098;11.582;2023-08-31T04:45:55;20.60;59.30
41644;DHT22;44236;48.098;11.582;2023-08-31T04:48:21;20.60;59.30
41644;DHT22;44236;48.098;11.582;2023-08-31T04:50:47;20.60;59.30
41644;DHT22;44236;48.098;11.582;2023-08-31T04:53:13;20.60;59.20
41644;DHT22;44236;48.098;11.582;2023-08-31T04:55:39;20.60;59.30
41644;DHT22;44236;48.098;11.582;2023-08-31T04:58:04;20.60;59.30
41644;DHT22;44236;48.098;11.582;2023-08-31T05:00:30;20.60;59.30
41644;DHT22;44236;48.098;11.582;2023-08-31T05:02:56;20.60;59.30
41644;DHT22;44236;48.098;11.582;2023-08-31T05:05:22;20.60;59.40
41644;DHT22;44236;48.098;11.582;2023-08-31T05:07:47;20.60;59.30
41644;DHT22;44236;48.098;11.582;2023-08-31T05:10:13;20.60;59.30
41644;DHT22;44236;48.098;11.582;2023-08-31T05:12:39;20.60;59.30
41644;DHT22;44236;48.098;11.582;2023-08-31T05:15:05;20.60;59.20
41644;DHT22;44236;48.098;11.582;2023-08-31T05:17:31;20.60;59.50
41644;DHT22;44236;48.098;11.582;2023-08-31T05:19:56;20.60;59.40
41644;DHT22;44236;48.098;11.582;2023-08-31T05:22:22;20.60;59.30
41644;DHT22;44236;48.098;11.582;2023-08-31T05:24:48;20.60;59.30
41644;DHT22;44236;48.098;11.582;2023-08-31T05:27:14;20.60;59.40
41644;DHT22;44236;48.098;11.582;2023-08-31T05:29:39;20.60;59.30
41644;DHT22;44236;48.098;11.582;2023-08-31T05:32:05;20.60;59.80
41644;DHT22;44236;48.098;11.582;2023-08-31T05:34:31;20.60;59.40
41644;DHT22;44236;48.098;11.582;2023-08-31T05:37:00;20.60;59.40
41644;DHT22;44236;48.098;11.582;2023-08-31T05:39:25;20.60;59.40
41644;DHT22;44236;48.098;11.582;2023-08-31T05:41:51;20.60;59.90
41644;DHT22;44236;48.098;11.582;2023-08-31T05:44:16;20.50;59.90
41644;DHT22;44236;48.098;11.582;2023-08-31T05:46:42;20.60;59.40
41644;DHT22;44236;48.098;11.582;2023-08-31T05:49:08;20.50;59.30
41644;DHT22;44236;48.098;11.582;2023-08-31T05:51:34;20.60;59.40
41644;DHT22;44236;48.098;11.582;2023-08-31T05:54:00;20.60;59.50
41644;DHT22;44236;48.098;11.582;2023-08-31T05:56:25;20.60;59.40
41644;DHT22;44236;48.098;11.582;2023-08-31T05:58:51;20.60;59.70
41644;DHT22;44236;48.098;11.582;2023-08-31T06:01:20;20.60;59.40
41644;DHT22;44236;48.098;11.582;2023-08-31T06:03:47;20.60;59.40
41644;DHT22;44236;48.098;11.582;2023-08-31T06:06:13;20.60;59.40
41644;DHT22;44236;48.098;11.582;2023-08-31T06:08:39;20.60;59.40
41644;DHT22;44236;48.098;11.582;2023-08-31T06:11:05;20.50;59.30
41644;DHT22;44236;48.098;11.582;2023-08-31T06:13:31;20.60;59.30
41644;DHT22;44236;48.098;11.582;2023-08-31T06:15:57;20.60;59.30
41644;DHT22;44236;48.098;11.582;2023-08-31T06:18:23;20.60;59.40
41644;DHT22;44236;48.098;11.582;2023-08-31T06:20:49;20.60;59.40
41644;DHT22;44236;48.098;11.582;2023-08-31T06:23:15;20.60;59.40
41644;DHT22;44236;48.098;11.582;2023-08-31T06:25:40;20.60;59.30
41644;DHT22;44236;48.098;11.582;2023-08-31T06:28:06;20.60;59.30
41644;DHT22;44236;48.098;11.582;2023-08-31T06:30:34;20.60;59.40
41644;DHT22;44236;48.098;11.582;2023-08-31T06:33:00;20.60;59.40
41644;DHT22;44236;48.098;11.582;2023-08-31T06:35:26;20.60;59.50
41644;DHT22;44236;48.098;11.582;2023-08-31T06:37:51;20.60;59.40
41644;DHT22;44236;48.098;11.582;2023-08-31T06:40:17;20.60;59.60
41644;DHT22;44236;48.098;11.582;2023-08-31T06:42:43;20.60;59.50
41644;DHT22;44236;48.098;11.582;2023-08-31T06:45:09;20.60;59.70
41644;DHT22;44236;48.098;11.582;2023-08-31T06:47:34;20.60;59.70
41644;DHT22;44236;48.098;11.582;2023-08-31T06:50:00;20.60;60.20
41644;DHT22;44236;48.098;11.582;2023-08-31T06:52:26;20.60;59.70
41644;DHT22;44236;48.098;11.582;2023-08-31T06:54:52;20.60;59.80
41644;DHT22;44236;48.098;11.582;2023-08-31T06:57:23;20.60;60.30
41644;DHT22;44236;48.098;11.582;2023-08-31T06:59:48;20.60;60.90
41644;DHT22;44236;48.098;11.582;2023-08-31T07:02:14;20.60;61.20
41644;DHT22;44236;48.098;11.582;2023-08-31T07:04:40;20.60;61.20
41644;DHT22;44236;48.098;11.582;2023-08-31T07:07:06;20.60;61.20
41644;DHT22;44236;48.098;11.582;2023-08-31T07:09:31;20.60;61.60
41644;DHT22;44236;48.098;11.582;2023-08-31T07:11:57;20.60;61.40
41644;DHT22;44236;48.098;11.582;2023-08-31T07:14:23;20.60;61.60
41644;DHT22;44236;48.098;11.582;2023-08-31T07:16:49;20.60;61.60
41644;DHT22;44236;48.098;11.582;2023-08-31T07:19:15;20.60;61.80
41644;DHT22;44236;48.098;11.582;2023-08-31T07:21:41;20.70;62.50
41644;DHT22;44236;48.098;11.582;2023-08-31T07:24:07;20.60;61.50
41644;DHT22;44236;48.098;11.582;2023-08-31T07:26:32;20.70;61.60
41644;DHT22;44236;48.098;11.582;2023-08-31T07:29:00;20.70;62.20
41644;DHT22;44236;48.098;11.582;2023-08-31T07:31:27;20.70;61.90
41644;DHT22;44236;48.098;11.582;2023-08-31T07:33:52;20.70;61.80
41644;DHT22;44236;48.098;11.582;2023-08-31T07:36:18;20.70;61.40
41644;DHT22;44236;48.098;11.582;2023-08-31T07:38:43;20.80;61.50
41644;DHT22;44236;48.098;11.582;2023-08-31T07:41:10;20.70;61.00
41644;DHT22;44236;48.098;11.582;2023-08-31T07:43:36;20.70;61.10
41644;DHT22;44236;48.098;11.582;2023-08-31T07:46:01;20.70;61.40
41644;DHT22;44236;48.098;11.582;2023-08-31T07:48:27;20.70;61.40
41644;DHT22;44236;48.098;11.582;2023-08-31T07:50:55;20.70;61.30
41644;DHT22;44236;48.098;11.582;2023-08-31T07:53:20;20.70;61.30
41644;DHT22;44236;48.098;11.582;2023-08-31T07:55:56;20.70;61.60
41644;DHT22;44236;48.098;11.582;2023-08-31T07:58:23;20.70;61.40
41644;DHT22;44236;48.098;11.582;2023-08-31T08:00:52;20.70;61.30
41644;DHT22;44236;48.098;11.582;2023-08-31T08:03:18;20.70;61.10
41644;DHT22;44236;48.098;11.582;2023-08-31T08:05:44;20.70;61.90
41644;DHT22;44236;48.098;11.582;2023-08-31T08:08:10;20.70;61.20
41644;DHT22;44236;48.098;11.582;2023-08-31T08:10:36;20.80;61.10
41644;DHT22;44236;48.098;11.582;2023-08-31T08:13:01;21.30;61.30
41644;DHT22;44236;48.098;11.582;2023-08-31T08:15:28;20.80;60.80
41644;DHT22;44236;48.098;11.582;2023-08-31T08:17:54;20.80;60.80
41644;DHT22;44236;48.098;11.582;2023-08-31T08:20:20;20.80;61.20
41644;DHT22;44236;48.098;11.582;2023-08-31T08:22:45;20.90;60.60
41644;DHT22;44236;48.098;11.582;2023-08-31T08:25:14;20.90;60.50
41644;DHT22;44236;48.098;11.582;2023-08-31T08:27:40;20.90;60.30
41644;DHT22;44236;48.098;11.582;2023-08-31T08:30:06;21.00;60.80
41644;DHT22;44236;48.098;11.582;2023-08-31T08:32:33;21.00;59.90
41644;DHT22;44236;48.098;11.582;2023-08-31T08:34:58;21.00;60.50
41644;DHT22;44236;48.098;11.582;2023-08-31T08:37:24;21.00;60.00
41644;DHT22;44236;48.098;11.582;2023-08-31T08:39:50;21.00;59.90
41644;DHT22;44236;48.098;11.582;2023-08-31T08:42:17;21.00;60.00
41644;DHT22;44236;48.098;11.582;2023-08-31T08:44:43;21.00;60.10
41644;DHT22;44236;48.098;11.582;2023-08-31T08:47:11;21.00;60.00
41644;DHT22;44236;48.098;11.582;2023-08-31T08:49:37;21.00;60.20
41644;DHT22;44236;48.098;11.582;2023-08-31T08:52:05;20.90;60.20
41644;DHT22;44236;48.098;11.582;2023-08-31T08:54:31;21.00;60.30
41644;DHT22;44236;48.098;11.582;2023-08-31T08:56:59;20.90;60.20
41644;DHT22;44236;48.098;11.582;2023-08-31T08:59:26;20.90;60.80
41644;DHT22;44236;48.098;11.582;2023-08-31T09:01:53;21.00;60.10
41644;DHT22;44236;48.098;11.582;2023-08-31T09:04:19;21.00;60.10
41644;DHT22;44236;48.098;11.582;2023-08-31T09:06:45;21.00;60.00
41644;DHT22;44236;48.098;11.582;2023-08-31T09:09:11;21.00;59.90
41644;DHT22;44236;48.098;11.582;2023-08-31T09:11:39;21.10;59.80
41644;DHT22;44236;48.098;11.582;2023-08-31T09:14:18;21.10;60.10
41644;DHT22;44236;48.098;11.582;2023-08-31T09:16:51;21.10;60.00
41644;DHT22;44236;48.098;11.582;2023-08-31T09:19:23;21.00;60.00
41644;DHT22;44236;48.098;11.582;2023-08-31T09:21:51;21.00;60.00
41644;DHT22;44236;48.098;11.582;2023-08-31T09:24:17;21.00;60.00
41644;DHT22;44236;48.098;11.582;2023-08-31T09:26:52;21.00;60.10
41644;DHT22;44236;48.098;11.582;2023-08-31T09:29:19;21.00;60.20
41644;DHT22;44236;48.098;11.582;2023-08-31T09:31:45;21.00;60.40
41644;DHT22;44236;48.098;11.582;2023-08-31T09:34:12;21.00;60.30
41644;DHT22;44236;48.098;11.582;2023-08-31T09:36:38;21.00;60.30
41644;DHT22;44236;48.098;11.582;2023-08-31T09:39:05;21.00;60.40
41644;DHT22;44236;48.098;11.582;2023-08-31T09:41:32;21.00;60.40
41644;DHT22;44236;48.098;11.582;2023-08-31T09:44:25;21.00;60.50
41644;DHT22;44236;48.098;11.582;2023-08-31T09:46:52;21.00;60.50
41644;DHT22;44236;48.098;11.582;2023-08-31T09:49:20;21.00;60.60
41644;DHT22;44236;48.098;11.582;2023-08-31T09:51:49;21.00;60.70
41644;DHT22;44236;48.098;11.582;2023-08-31T09:54:21;21.00;60.50
41644;DHT22;44236;48.098;11.582;2023-08-31T09:56:55;21.00;60.50
41644;DHT22;44236;48.098;11.582;2023-08-31T09:59:22;21.10;60.30
41644;DHT22;44236;48.098;11.582;2023-08-31T10:01:49;21.10;60.10
41644;DHT22;44236;48.098;11.582;2023-08-31T10:04:15;21.10;60.10
41644;DHT22;44236;48.098;11.582;2023-08-31T10:06:42;21.10;60.00
41644;DHT22;44236;48.098;11.582;2023-08-31T10:09:10;21.10;60.00
41644;DHT22;44236;48.098;11.582;2023-08-31T10:11:38;21.10;60.00
41644;DHT22;44236;48.098;11.582;2023-08-31T10:14:04;21.10;60.00
41644;DHT22;44236;48.098;11.582;2023-08-31T10:16:30;21.10;60.20
41644;DHT22;44236;48.098;11.582;2023-08-31T10:18:57;21.10;60.30
41644;DHT22;44236;48.098;11.582;2023-08-31T10:21:23;21.10;60.20
41644;DHT22;44236;48.098;11.582;2023-08-31T10:23:51;21.10;60.40
41644;DHT22;44236;48.098;11.582;2023-08-31T10:26:26;21.10;60.70
41644;DHT22;44236;48.098;11.582;2023-08-31T10:28:52;21.10;60.90
41644;DHT22;44236;48.098;11.582;2023-08-31T10:31:19;21.10;60.60
41644;DHT22;44236;48.098;11.582;2023-08-31T10:34:06;21.10;60.50
41644;DHT22;44236;48.098;11.582;2023-08-31T10:36:47;21.10;60.70
41644;DHT22;44236;48.098;11.582;2023-08-31T10:39:17;21.10;61.00
41644;DHT22;44236;48.098;11.582;2023-08-31T10:41:55;21.10;61.10
41644;DHT22;44236;48.098;11.582;2023-08-31T10:44:24;21.10;61.10
41644;DHT22;44236;48.098;11.582;2023-08-31T10:46:51;21.20;61.30
41644;DHT22;44236;48.098;11.582;2023-08-31T10:49:22;21.20;61.30
41644;DHT22;44236;48.098;11.582;2023-08-31T10:51:58;21.10;61.60
41644;DHT22;44236;48.098;11.582;2023-08-31T10:54:40;21.20;62.50
41644;DHT22;44236;48.098;11.582;2023-08-31T10:57:05;21.20;62.00
41644;DHT22;44236;48.098;11.582;2023-08-31T10:59:50;21.20;61.70
41644;DHT22;44236;48.098;11.582;2023-08-31T11:02:38;21.20;63.20
41644;DHT22;44236;48.098;11.582;2023-08-31T11:05:17;21.20;62.90
41644;DHT22;44236;48.098;11.582;2023-08-31T11:07:44;21.20;62.50
41644;DHT22;44236;48.098;11.582;2023-08-31T11:10:11;21.30;63.50
41644;DHT22;44236;48.098;11.582;2023-08-31T11:12:37;21.50;63.40
41644;DHT22;44236;48.098;11.582;2023-08-31T11:15:04;21.30;63.70
41644;DHT22;44236;48.098;11.582;2023-08-31T11:17:30;21.40;63.50
41644;DHT22;44236;48.098;11.582;2023-08-31T11:19:59;21.40;63.70
41644;DHT22;44236;48.098;11.582;2023-08-31T11:22:25;21.40;63.30
41644;DHT22;44236;48.098;11.582;2023-08-31T11:24:51;21.50;63.10
41644;DHT22;44236;48.098;11.582;2023-08-31T11:27:20;21.50;63.40
41644;DHT22;44236;48.098;11.582;2023-08-31T11:29:46;21.50;62.90
41644;DHT22;44236;48.098;11.582;2023-08-31T11:32:12;21.60;63.10
41644;DHT22;44236;48.098;11.582;2023-08-31T11:34:43;21.60;62.90
41644;DHT22;44236;48.098;11.582;2023-08-31T11:37:10;21.60;63.10
41644;DHT22;44236;48.098;11.582;2023-08-31T11:39:37;21.60;62.90
41644;DHT22;44236;48.098;11.582;2023-08-31T11:42:05;21.70;62.90
41644;DHT22;44236;48.098;11.582;2023-08-31T11:44:31;21.70;62.80
41644;DHT22;44236;48.098;11.582;2023-08-31T11:46:57;21.70;63.00
41644;DHT22;44236;48.098;11.582;2023-08-31T11:49:23;21.80;63.20
41644;DHT22;44236;48.098;11.582;2023-08-31T11:51:49;21.80;63.60
41644;DHT22;44236;48.098;11.582;2023-08-31T11:54:16;21.80;63.20
41644;DHT22;44236;48.098;11.582;2023-08-31T11:56:43;21.80;62.80
41644;DHT22;44236;48.098;11.582;2023-08-31T11:59:11;21.90;63.00
41644;DHT22;44236;48.098;11.582;2023-08-31T12:01:39;21.90;61.50
41644;DHT22;44236;48.098;11.582;2023-08-31T12:06:41;21.90;61.20
41644;DHT22;44236;48.098;11.582;2023-08-31T12:09:08;21.90;61.90
41644;DHT22;44236;48.098;11.582;2023-08-31T12:11:34;21.90;62.50
41644;DHT22;44236;48.098;11.582;2023-08-31T12:14:01;21.90;62.50
41644;DHT22;44236;48.098;11.582;2023-08-31T12:16:36;21.80;62.40
41644;DHT22;44236;48.098;11.582;2023-08-31T12:19:03;21.90;62.30
41644;DHT22;44236;48.098;11.582;2023-08-31T12:21:33;21.90;61.10
41644;DHT22;44236;48.098;11.582;2023-08-31T12:23:59;21.90;61.20
41644;DHT22;44236;48.098;11.582;2023-08-31T12:26:25;21.90;61.60
41644;DHT22;44236;48.098;11.582;2023-08-31T12:28:51;21.90;60.60
41644;DHT22;44236;48.098;11.582;2023-08-31T12:31:17;21.80;60.90
41644;DHT22;44236;48.098;11.582;2023-08-31T12:33:42;21.80;62.10
41644;DHT22;44236;48.098;11.582;2023-08-31T12:36:08;21.80;60.80
41644;DHT22;44236;48.098;11.582;2023-08-31T12:38:34;21.80;61.50
41644;DHT22;44236;48.098;11.582;2023-08-31T12:40:59;21.80;60.80
41644;DHT22;44236;48.098;11.582;2023-08-31T12:43:27;21.80;61.90
41644;DHT22;44236;48.098;11.582;2023-08-31T12:45:57;21.80;60.90
41644;DHT22;44236;48.098;11.582;2023-08-31T12:48:22;21.80;61.50
41644;DHT22;44236;48.098;11.582;2023-08-31T12:50:48;22.10;61.60
41644;DHT22;44236;48.098;11.582;2023-08-31T12:53:14;21.80;61.20
41644;DHT22;44236;48.098;11.582;2023-08-31T12:55:40;21.80;61.10
41644;DHT22;44236;48.098;11.582;2023-08-31T12:58:06;21.80;62.00
41644;DHT22;44236;48.098;11.582;2023-08-31T13:00:31;21.80;61.40
41644;DHT22;44236;48.098;11.582;2023-08-31T13:02:57;21.80;62.10
41644;DHT22;44236;48.098;11.582;2023-08-31T13:05:22;21.80;60.90
41644;DHT22;44236;48.098;11.582;2023-08-31T13:07:48;21.80;62.10
41644;DHT22;44236;48.098;11.582;2023-08-31T13:10:14;21.80;61.40
41644;DHT22;44236;48.098;11.582;2023-08-31T13:12:39;21.80;62.30
41644;DHT22;44236;48.098;11.582;2023-08-31T13:15:05;21.80;62.30
41644;DHT22;44236;48.098;11.582;2023-08-31T13:17:33;21.80;62.30
41644;DHT22;44236;48.098;11.582;2023-08-31T13:19:59;21.80;62.40
41644;DHT22;44236;48.098;11.582;2023-08-31T13:22:25;21.80;62.40
41644;DHT22;44236;48.098;11.582;2023-08-31T13:24:51;21.80;62.30
41644;DHT22;44236;48.098;11.582;2023-08-31T13:27:17;21.80;62.30
41644;DHT22;44236;48.098;11.582;2023-08-31T13:29:43;21.80;62.20
41644;DHT22;44236;48.098;11.582;2023-08-31T13:32:08;21.80;62.20
41644;DHT22;44236;48.098;11.582;2023-08-31T13:34:34;21.80;62.30
41644;DHT22;44236;48.098;11.582;2023-08-31T13:37:00;21.80;62.30
41644;DHT22;44236;48.098;11.582;2023-08-31T13:39:26;21.80;62.40
41644;DHT22;44236;48.098;11.582;2023-08-31T13:41:52;21.80;62.40
41644;DHT22;44236;48.098;11.582;2023-08-31T13:44:21;21.80;62.40
41644;DHT22;44236;48.098;11.582;2023-08-31T13:46:47;21.70;62.40
41644;DHT22;44236;48.098;11.582;2023-08-31T13:49:13;21.80;62.50
41644;DHT22;44236;48.098;11.582;2023-08-31T13:51:39;21.80;62.50
41644;DHT22;44236;48.098;11.582;2023-08-31T13:54:05;21.80;62.40
41644;DHT22;44236;48.098;11.582;2023-08-31T13:56:31;21.70;62.50
41644;DHT22;44236;48.098;11.582;2023-08-31T13:58:56;21.70;62.50
41644;DHT22;44236;48.098;11.582;2023-08-31T14:01:22;21.70;62.50
41644;DHT22;44236;48.098;11.582;2023-08-31T14:03:47;21.70;62.40
41644;DHT22;44236;48.098;11.582;2023-08-31T14:06:13;21.70;62.40
41644;DHT22;44236;48.098;11.582;2023-08-31T14:08:40;21.70;62.30
41644;DHT22;44236;48.098;11.582;2023-08-31T14:11:06;21.70;62.30
41644;DHT22;44236;48.098;11.582;2023-08-31T14:13:31;21.80;62.30
41644;DHT22;44236;48.098;11.582;2023-08-31T14:15:57;21.70;62.20
41644;DHT22;44236;48.098;11.582;2023-08-31T14:18:23;21.70;62.30
41644;DHT22;44236;48.098;11.582;2023-08-31T14:20:51;21.70;62.40
41644;DHT22;44236;48.098;11.582;2023-08-31T14:23:16;21.70;62.30
41644;DHT22;44236;48.098;11.582;2023-08-31T14:25:42;21.70;62.20
41644;DHT22;44236;48.098;11.582;2023-08-31T14:28:08;21.70;62.20
41644;DHT22;44236;48.098;11.582;2023-08-31T14:30:36;21.70;62.20
41644;DHT22;44236;48.098;11.582;2023-08-31T14:33:02;21.70;62.20
41644;DHT22;44236;48.098;11.582;2023-08-31T14:35:28;21.70;62.20
41644;DHT22;44236;48.098;11.582;2023-08-31T14:37:53;21.70;62.20
41644;DHT22;44236;48.098;11.582;2023-08-31T14:40:19;21.70;62.20
41644;DHT22;44236;48.098;11.582;2023-08-31T14:42:45;21.70;62.30
41644;DHT22;44236;48.098;11.582;2023-08-31T14:45:10;21.70;62.20
41644;DHT22;44236;48.098;11.582;2023-08-31T14:47:36;21.70;62.80
41644;DHT22;44236;48.098;11.582;2023-08-31T14:50:02;21.70;62.10
41644;DHT22;44236;48.098;11.582;2023-08-31T14:52:29;21.70;62.20
41644;DHT22;44236;48.098;11.582;2023-08-31T14:54:55;21.70;62.20
41644;DHT22;44236;48.098;11.582;2023-08-31T14:57:21;21.70;62.20
41644;DHT22;44236;48.098;11.582;2023-08-31T14:59:46;21.70;62.10
41644;DHT22;44236;48.098;11.582;2023-08-31T15:02:12;21.70;62.10
41644;DHT22;44236;48.098;11.582;2023-08-31T15:04:39;21.70;62.20
41644;DHT22;44236;48.098;11.582;2023-08-31T15:07:05;21.70;62.10
41644;DHT22;44236;48.098;11.582;2023-08-31T15:09:31;21.70;61.80
41644;DHT22;44236;48.098;11.582;2023-08-31T15:11:57;21.70;62.10
41644;DHT22;44236;48.098;11.582;2023-08-31T15:14:23;21.70;62.10
41644;DHT22;44236;48.098;11.582;2023-08-31T15:16:48;21.70;62.20
41644;DHT22;44236;48.098;11.582;2023-08-31T15:19:14;21.70;62.10
41644;DHT22;44236;48.098;11.582;2023-08-31T15:21:40;21.70;62.10
41644;DHT22;44236;48.098;11.582;2023-08-31T15:24:05;21.70;62.10
41644;DHT22;44236;48.098;11.582;2023-08-31T15:26:31;21.70;62.10